createdAt,value
2022-12-03T00:01:10.237Z,4.17
2022-12-03T00:03:13.716Z,4.22
2022-12-03T00:05:17.333Z,4.23
2022-12-03T00:07:22.259Z,4.10
2022-12-03T00:09:25.643Z,4.24
2022-12-03T00:11:29.165Z,4.24
2022-12-03T00:13:32.720Z,4.23
2022-12-03T00:15:36.097Z,4.51
2022-12-03T00:17:39.488Z,4.43
2022-12-03T00:19:42.777Z,4.35
2022-12-03T00:21:46.070Z,4.30
2022-12-03T00:23:50.789Z,4.24
2022-12-03T00:25:54.086Z,4.18
2022-12-03T00:27:57.336Z,4.15
2022-12-03T00:30:00.645Z,4.14
2022-12-03T00:32:03.929Z,4.09
2022-12-03T00:34:07.269Z,4.15
2022-12-03T00:36:10.989Z,4.08
2022-12-03T00:38:14.488Z,4.08
2022-12-03T00:40:19.304Z,4.09
2022-12-03T00:42:22.665Z,4.09
2022-12-03T00:44:26.061Z,4.10
2022-12-03T00:46:29.528Z,4.08
2022-12-03T00:48:32.996Z,4.13
2022-12-03T00:50:36.271Z,4.13
2022-12-03T00:52:39.642Z,4.14
2022-12-03T00:54:42.947Z,4.15
2022-12-03T00:56:47.649Z,4.13
2022-12-03T00:58:50.963Z,4.11
2022-12-03T01:00:54.395Z,4.04
2022-12-03T01:02:57.885Z,3.97
2022-12-03T01:05:01.512Z,4.09
2022-12-03T01:07:04.921Z,4.09
2022-12-03T01:09:08.280Z,3.96
2022-12-03T01:11:25.536Z,3.88
2022-12-03T01:13:30.302Z,3.82
2022-12-03T01:15:33.631Z,3.80
2022-12-03T01:17:37.361Z,3.95
2022-12-03T01:19:44.980Z,3.95
2022-12-03T01:21:52.697Z,3.94
2022-12-03T01:23:56.036Z,3.95
2022-12-03T01:25:59.373Z,4.00
2022-12-03T01:28:02.681Z,4.04
2022-12-03T01:30:09.259Z,4.02
2022-12-03T01:32:17.377Z,4.03
2022-12-03T01:34:20.761Z,3.92
2022-12-03T01:36:24.163Z,3.98
2022-12-03T01:38:27.437Z,4.11
2022-12-03T01:40:30.913Z,4.07
2022-12-03T01:42:37.367Z,4.08
2022-12-03T01:44:41.569Z,4.07
2022-12-03T01:46:47.657Z,4.08
2022-12-03T01:48:53.778Z,4.06
2022-12-03T01:50:57.077Z,4.09
2022-12-03T01:53:04.514Z,4.11
2022-12-03T01:55:14.990Z,4.14
2022-12-03T01:57:22.620Z,4.14
2022-12-03T01:59:33.420Z,4.17
2022-12-03T02:01:36.765Z,4.13
2022-12-03T02:03:43.623Z,4.10
2022-12-03T02:05:47.335Z,4.15
2022-12-03T02:07:51.070Z,4.12
2022-12-03T02:09:56.176Z,4.10
2022-12-03T02:11:59.660Z,4.20
2022-12-03T02:14:06.395Z,4.24
2022-12-03T02:16:10.160Z,4.16
2022-12-03T02:18:13.623Z,4.08
2022-12-03T02:20:20.369Z,4.30
2022-12-03T02:22:32.685Z,4.28
2022-12-03T02:24:41.423Z,4.21
2022-12-03T02:26:46.184Z,4.27
2022-12-03T02:28:49.497Z,4.26
2022-12-03T02:30:52.902Z,4.23
2022-12-03T02:32:57.639Z,4.19
2022-12-03T02:35:00.981Z,4.15
2022-12-03T02:37:06.978Z,3.94
2022-12-03T02:39:10.509Z,4.13
2022-12-03T02:41:32.121Z,4.10
2022-12-03T02:43:37.650Z,4.10
2022-12-03T02:45:43.893Z,4.13
2022-12-03T02:47:50.764Z,4.18
2022-12-03T02:49:54.071Z,4.18
2022-12-03T02:51:57.784Z,4.22
2022-12-03T02:54:01.664Z,4.22
2022-12-03T02:56:06.584Z,4.23
2022-12-03T02:58:11.234Z,4.20
2022-12-03T03:00:17.507Z,4.22
2022-12-03T03:02:21.704Z,4.22
2022-12-03T03:04:25.490Z,4.21
2022-12-03T03:06:29.042Z,4.14
2022-12-03T03:08:32.970Z,4.13
2022-12-03T03:10:38.212Z,4.07
2022-12-03T03:12:41.996Z,4.04
2022-12-03T03:14:46.581Z,4.21
2022-12-03T03:16:56.027Z,4.21
2022-12-03T03:18:59.583Z,4.20
2022-12-03T03:21:03.718Z,4.20
2022-12-03T03:23:13.987Z,4.16
2022-12-03T03:25:21.012Z,4.18
2022-12-03T03:27:24.451Z,4.20
2022-12-03T03:29:27.930Z,4.25
2022-12-03T03:31:31.449Z,4.21
2022-12-03T03:33:37.659Z,4.26
2022-12-03T03:35:41.736Z,4.05
2022-12-03T03:37:45.152Z,4.23
2022-12-03T03:39:48.828Z,4.21
2022-12-03T03:41:52.277Z,4.17
2022-12-03T03:43:56.442Z,4.21
2022-12-03T03:46:00.171Z,4.19
2022-12-03T03:48:04.007Z,4.14
2022-12-03T03:50:11.398Z,4.15
2022-12-03T03:52:15.037Z,4.18
2022-12-03T03:54:18.867Z,4.12
2022-12-03T03:56:24.673Z,4.14
2022-12-03T03:58:28.240Z,4.11
2022-12-03T04:00:32.485Z,4.09
2022-12-03T04:02:35.983Z,4.13
2022-12-03T04:04:39.370Z,4.11
2022-12-03T04:06:44.111Z,4.09
2022-12-03T04:08:47.465Z,4.11
2022-12-03T04:11:08.543Z,4.16
2022-12-03T04:13:10.958Z,4.14
2022-12-03T04:15:14.491Z,4.13
2022-12-03T04:17:18.817Z,4.11
2022-12-03T04:19:23.398Z,4.11
2022-12-03T04:21:57.490Z,4.06
2022-12-03T04:24:02.576Z,4.07
2022-12-03T04:26:23.730Z,4.04
2022-12-03T04:28:44.936Z,4.00
2022-12-03T04:31:23.601Z,4.00
2022-12-03T04:33:44.569Z,4.02
2022-12-03T04:35:47.179Z,4.06
2022-12-03T04:37:50.648Z,4.05
2022-12-03T04:39:55.492Z,4.08
2022-12-03T04:41:58.832Z,4.03
2022-12-03T04:44:19.957Z,4.01
2022-12-03T04:46:23.344Z,4.03
2022-12-03T04:48:26.933Z,3.97
2022-12-03T04:50:30.203Z,3.64
2022-12-03T04:52:33.499Z,4.00
2022-12-03T04:54:36.990Z,4.01
2022-12-03T04:56:41.644Z,4.01
2022-12-03T04:58:47.143Z,3.71
2022-12-03T05:00:50.587Z,4.03
2022-12-03T05:02:53.975Z,4.00
2022-12-03T05:04:57.351Z,3.98
2022-12-03T05:07:00.682Z,4.01
2022-12-03T05:09:04.627Z,3.92
2022-12-03T05:11:08.263Z,3.92
2022-12-03T05:13:12.915Z,3.93
2022-12-03T05:15:16.525Z,3.86
2022-12-03T05:17:19.914Z,3.87
2022-12-03T05:19:43.288Z,3.87
2022-12-03T05:21:45.632Z,3.51
2022-12-03T05:23:48.962Z,3.90
2022-12-03T05:25:52.482Z,3.89
2022-12-03T05:27:55.797Z,3.92
2022-12-03T05:30:00.450Z,3.96
2022-12-03T05:32:03.906Z,3.80
2022-12-03T05:34:07.178Z,3.95
2022-12-03T05:36:10.888Z,3.95
2022-12-03T05:38:14.476Z,3.95
2022-12-03T05:40:17.989Z,3.98
2022-12-03T05:42:39.251Z,3.94
2022-12-03T05:44:42.533Z,4.01
2022-12-03T05:46:47.250Z,4.03
2022-12-03T05:48:50.832Z,4.02
2022-12-03T05:50:54.103Z,3.98
2022-12-03T05:52:58.758Z,4.05
2022-12-03T05:55:02.103Z,3.96
2022-12-03T05:57:05.502Z,3.99
2022-12-03T05:59:08.796Z,4.00
2022-12-03T06:01:12.170Z,3.93
2022-12-03T06:03:16.892Z,3.88
2022-12-03T06:05:20.823Z,3.85
2022-12-03T06:07:24.325Z,3.84
2022-12-03T06:09:27.727Z,3.83
2022-12-03T06:11:33.916Z,3.89
2022-12-03T06:13:37.244Z,3.73
2022-12-03T06:15:43.956Z,3.85
2022-12-03T06:17:47.716Z,3.81
2022-12-03T06:19:52.357Z,3.80
2022-12-03T06:21:55.691Z,3.77
2022-12-03T06:23:59.909Z,3.73
2022-12-03T06:26:03.209Z,3.74
2022-12-03T06:28:07.325Z,3.69
2022-12-03T06:30:13.396Z,3.68
2022-12-03T06:32:16.752Z,3.70
2022-12-03T06:34:20.115Z,3.72
2022-12-03T06:36:26.121Z,3.71
2022-12-03T06:38:29.476Z,3.69
2022-12-03T06:40:32.773Z,3.65
2022-12-03T06:42:36.085Z,3.61
2022-12-03T06:44:39.402Z,3.53
2022-12-03T06:46:42.760Z,3.67
2022-12-03T06:48:46.518Z,3.67
2022-12-03T06:50:49.937Z,3.68
2022-12-03T06:52:54.550Z,3.76
2022-12-03T06:54:57.998Z,3.72
2022-12-03T06:57:04.251Z,3.71
2022-12-03T06:59:07.626Z,3.76
2022-12-03T07:01:11.079Z,3.79
2022-12-03T07:03:14.527Z,3.73
2022-12-03T07:05:18.209Z,3.77
2022-12-03T07:07:21.569Z,3.73
2022-12-03T07:09:26.373Z,3.32
2022-12-03T07:11:32.754Z,3.71
2022-12-03T07:13:36.036Z,3.79
2022-12-03T07:15:39.453Z,3.79
2022-12-03T07:17:42.795Z,3.79
2022-12-03T07:19:46.066Z,3.71
2022-12-03T07:21:49.720Z,3.76
2022-12-03T07:23:52.972Z,3.72
2022-12-03T07:25:57.645Z,3.74
2022-12-03T07:28:01.003Z,3.64
2022-12-03T07:30:05.128Z,3.67
2022-12-03T07:32:08.453Z,3.72
2022-12-03T07:34:11.816Z,3.70
2022-12-03T07:36:15.149Z,3.77
2022-12-03T07:38:18.513Z,3.73
2022-12-03T07:40:22.132Z,3.78
2022-12-03T07:42:27.045Z,3.77
2022-12-03T07:44:31.577Z,3.81
2022-12-03T07:46:35.141Z,3.81
2022-12-03T07:48:38.964Z,3.82
2022-12-03T07:50:42.276Z,3.83
2022-12-03T07:52:45.649Z,3.81
2022-12-03T07:54:49.805Z,3.77
2022-12-03T07:56:57.978Z,3.76
2022-12-03T07:59:05.763Z,3.74
2022-12-03T08:01:10.302Z,3.78
2022-12-03T08:03:13.801Z,3.70
2022-12-03T08:05:17.101Z,3.70
2022-12-03T08:07:20.363Z,3.73
2022-12-03T08:09:23.696Z,3.78
2022-12-03T08:11:30.172Z,3.82
2022-12-03T08:13:35.243Z,3.81
2022-12-03T08:15:39.947Z,3.77
2022-12-03T08:17:44.313Z,3.72
2022-12-03T08:19:48.358Z,3.70
2022-12-03T08:21:55.196Z,3.66
2022-12-03T08:24:13.755Z,3.83
2022-12-03T08:26:23.339Z,3.67
2022-12-03T08:28:27.528Z,3.76
2022-12-03T08:30:30.912Z,3.74
2022-12-03T08:32:36.005Z,3.67
2022-12-03T08:34:40.842Z,3.63
2022-12-03T08:36:44.653Z,3.44
2022-12-03T08:38:52.147Z,3.37
2022-12-03T08:40:56.295Z,3.32
2022-12-03T08:42:58.611Z,3.22
2022-12-03T08:45:40.982Z,2.94
2022-12-03T08:47:46.282Z,3.28
2022-12-03T08:49:54.867Z,3.45
2022-12-03T08:52:01.523Z,3.52
2022-12-03T08:54:13.835Z,3.44
2022-12-03T08:56:24.879Z,3.49
2022-12-03T08:58:38.137Z,3.57
2022-12-03T09:00:42.745Z,3.41
2022-12-03T09:02:50.417Z,3.21
2022-12-03T09:04:54.797Z,3.28
2022-12-03T09:06:58.896Z,3.16
2022-12-03T09:09:06.530Z,3.29
2022-12-03T09:11:10.286Z,3.40
2022-12-03T09:13:13.630Z,3.53
2022-12-03T09:15:17.157Z,3.40
2022-12-03T09:17:20.438Z,3.36
2022-12-03T09:19:26.084Z,3.41
2022-12-03T09:21:29.442Z,3.34
2022-12-03T09:23:33.633Z,3.43
2022-12-03T09:25:36.945Z,3.36
2022-12-03T09:27:40.334Z,3.47
2022-12-03T09:29:43.692Z,3.62
2022-12-03T09:31:47.039Z,3.66
2022-12-03T09:33:50.668Z,3.59
2022-12-03T09:35:55.350Z,3.64
2022-12-03T09:37:58.770Z,3.69
2022-12-03T09:40:02.340Z,3.45
2022-12-03T09:42:06.146Z,4.04
2022-12-03T09:44:15.777Z,4.96
2022-12-03T09:46:22.118Z,4.54
2022-12-03T09:48:25.998Z,4.40
2022-12-03T09:50:30.191Z,4.14
2022-12-03T09:52:35.483Z,4.08
2022-12-03T09:54:45.596Z,3.93
2022-12-03T09:56:50.325Z,3.78
2022-12-03T09:58:53.781Z,3.76
2022-12-03T10:00:58.009Z,3.85
2022-12-03T10:03:04.010Z,3.97
2022-12-03T10:05:07.806Z,3.91
2022-12-03T10:07:11.586Z,3.86
2022-12-03T10:09:23.374Z,3.80
2022-12-03T10:11:27.624Z,3.42
2022-12-03T10:13:34.544Z,3.82
2022-12-03T10:15:38.224Z,3.99
2022-12-03T10:17:43.841Z,4.03
2022-12-03T10:19:47.399Z,4.05
2022-12-03T10:21:51.377Z,4.08
2022-12-03T10:24:20.976Z,4.17
2022-12-03T10:26:39.957Z,4.10
2022-12-03T10:28:47.581Z,4.12
2022-12-03T10:30:56.236Z,4.18
2022-12-03T10:33:02.611Z,4.26
2022-12-03T10:35:11.832Z,4.17
2022-12-03T10:37:17.775Z,4.22
2022-12-03T10:39:22.460Z,4.28
2022-12-03T10:41:27.989Z,4.28
2022-12-03T10:43:31.320Z,4.31
2022-12-03T10:45:35.531Z,4.36
2022-12-03T10:47:39.454Z,4.38
2022-12-03T10:49:43.588Z,4.40
2022-12-03T10:51:48.692Z,4.31
2022-12-03T10:53:52.276Z,4.33
2022-12-03T10:55:59.487Z,4.08
2022-12-03T10:58:02.954Z,3.92
2022-12-03T11:00:08.495Z,3.95
2022-12-03T11:02:19.761Z,3.71
2022-12-03T11:04:27.052Z,3.58
2022-12-03T11:06:32.866Z,3.67
2022-12-03T11:08:38.245Z,3.77
2022-12-03T11:10:41.652Z,3.96
2022-12-03T11:13:26.058Z,3.87
2022-12-03T11:15:43.540Z,3.90
2022-12-03T11:17:49.991Z,3.78
2022-12-03T11:19:53.414Z,3.68
2022-12-03T11:22:27.063Z,3.91
2022-12-03T11:24:30.804Z,3.93
2022-12-03T11:27:25.854Z,3.95
2022-12-03T11:29:50.648Z,3.91
2022-12-03T11:31:53.982Z,4.08
2022-12-03T11:34:49.501Z,4.08
2022-12-03T11:37:23.225Z,3.91
2022-12-03T11:40:14.613Z,3.77
2022-12-03T11:42:39.933Z,3.95
2022-12-03T11:44:47.865Z,3.89
2022-12-03T11:46:52.646Z,3.80
2022-12-03T11:49:00.126Z,3.77
2022-12-03T11:51:03.468Z,3.81
2022-12-03T11:53:15.409Z,3.78
2022-12-03T11:55:25.084Z,3.88
2022-12-03T11:57:38.313Z,4.04
2022-12-03T12:00:05.911Z,4.13
2022-12-03T12:02:21.886Z,4.25
2022-12-03T12:04:32.044Z,4.25
2022-12-03T12:06:42.602Z,4.32
2022-12-03T12:08:57.358Z,4.12
2022-12-03T12:11:00.818Z,3.98
2022-12-03T12:13:04.297Z,4.02
2022-12-03T12:15:35.328Z,4.22
2022-12-03T12:17:40.261Z,4.27
2022-12-03T12:19:46.428Z,4.26
2022-12-03T12:21:51.799Z,4.19
2022-12-03T12:23:55.149Z,4.28
2022-12-03T12:26:07.458Z,4.10
2022-12-03T12:28:10.950Z,4.11
2022-12-03T12:30:16.832Z,4.03
2022-12-03T12:32:24.155Z,4.02
2022-12-03T12:34:28.820Z,4.12
2022-12-03T12:36:32.164Z,4.02
2022-12-03T12:38:35.422Z,4.07
2022-12-03T12:40:40.779Z,4.03
2022-12-03T12:42:53.300Z,4.12
2022-12-03T12:45:02.017Z,4.10
2022-12-03T12:47:13.405Z,4.12
2022-12-03T12:49:20.535Z,4.11
2022-12-03T12:51:26.267Z,4.11
2022-12-03T12:53:32.313Z,4.20
2022-12-03T12:55:35.761Z,4.30
2022-12-03T12:57:39.424Z,4.26
2022-12-03T12:59:42.912Z,4.43
2022-12-03T13:01:48.563Z,4.49
2022-12-03T13:03:53.177Z,4.52
2022-12-03T13:06:00.922Z,4.53
2022-12-03T13:08:16.605Z,4.56
2022-12-03T13:10:29.150Z,4.93
2022-12-03T13:12:32.515Z,4.77
2022-12-03T13:14:37.899Z,4.41
2022-12-03T13:16:41.327Z,4.36
2022-12-03T13:18:47.414Z,4.20
2022-12-03T13:20:50.724Z,4.31
2022-12-03T13:22:54.039Z,4.20
2022-12-03T13:24:59.385Z,4.19
2022-12-03T13:27:09.962Z,4.19
2022-12-03T13:29:17.099Z,4.17
2022-12-03T13:31:26.259Z,4.30
2022-12-03T13:33:31.125Z,4.37
2022-12-03T13:35:36.398Z,4.32
2022-12-03T13:37:39.898Z,4.27
2022-12-03T13:39:47.418Z,4.43
2022-12-03T13:42:10.003Z,4.19
2022-12-03T13:44:19.031Z,4.61
2022-12-03T13:46:22.600Z,4.60
2022-12-03T13:48:30.888Z,4.59
2022-12-03T13:50:37.822Z,4.58
2022-12-03T13:52:41.170Z,4.56
2022-12-03T13:54:44.582Z,4.50
2022-12-03T13:56:48.419Z,4.45
2022-12-03T13:58:53.054Z,4.54
2022-12-03T14:00:56.580Z,4.43
2022-12-03T14:03:00.017Z,4.51
2022-12-03T14:05:03.290Z,4.50
2022-12-03T14:07:06.667Z,4.42
2022-12-03T14:09:09.966Z,4.37
2022-12-03T14:11:34.210Z,4.39
2022-12-03T14:13:36.562Z,4.45
2022-12-03T14:15:41.263Z,4.40
2022-12-03T14:17:46.447Z,4.42
2022-12-03T14:19:49.988Z,4.48
2022-12-03T14:21:53.356Z,4.51
2022-12-03T14:23:56.671Z,4.52
2022-12-03T14:26:00.131Z,4.54
2022-12-03T14:28:08.490Z,4.64
2022-12-03T14:30:12.734Z,4.68
2022-12-03T14:32:17.745Z,4.69
2022-12-03T14:34:21.275Z,4.71
2022-12-03T14:36:24.564Z,4.70
2022-12-03T14:38:28.372Z,4.67
2022-12-03T14:40:31.735Z,4.65
2022-12-03T14:42:35.346Z,4.60
2022-12-03T14:44:40.355Z,4.57
2022-12-03T14:46:43.627Z,4.63
2022-12-03T14:48:48.502Z,4.68
2022-12-03T14:50:52.365Z,4.72
2022-12-03T14:52:55.767Z,4.71
2022-12-03T14:54:59.084Z,4.67
2022-12-03T14:57:02.421Z,4.63
2022-12-03T14:59:05.750Z,4.63
2022-12-03T15:01:09.361Z,4.62
2022-12-03T15:03:12.745Z,4.68
2022-12-03T15:05:18.596Z,4.67
2022-12-03T15:07:23.352Z,4.66
2022-12-03T15:09:27.056Z,4.68
2022-12-03T15:11:30.419Z,4.64
2022-12-03T15:13:33.728Z,4.72
2022-12-03T15:15:37.059Z,4.66
2022-12-03T15:17:40.449Z,4.71
2022-12-03T15:19:43.841Z,4.71
2022-12-03T15:21:48.619Z,4.71
2022-12-03T15:23:51.981Z,4.69
2022-12-03T15:25:55.338Z,4.66
2022-12-03T15:27:58.709Z,4.53
2022-12-03T15:30:02.158Z,4.65
2022-12-03T15:32:05.781Z,4.68
2022-12-03T15:34:09.098Z,4.79
2022-12-03T15:36:12.548Z,4.73
2022-12-03T15:38:17.266Z,4.71
2022-12-03T15:40:20.572Z,4.66
2022-12-03T15:42:24.077Z,4.71
2022-12-03T15:44:27.398Z,4.72
2022-12-03T15:46:31.473Z,4.63
2022-12-03T15:48:35.079Z,4.74
2022-12-03T15:50:40.612Z,4.74
2022-12-03T15:52:43.950Z,4.67
2022-12-03T15:54:50.300Z,4.63
2022-12-03T15:56:57.186Z,4.56
2022-12-03T15:59:01.040Z,4.63
2022-12-03T16:01:04.527Z,4.69
2022-12-03T16:03:08.037Z,4.62
2022-12-03T16:05:13.088Z,4.65
2022-12-03T16:07:16.410Z,4.64
2022-12-03T16:09:25.333Z,4.63
2022-12-03T16:11:31.983Z,4.62
2022-12-03T16:13:35.348Z,4.63
2022-12-03T16:15:38.728Z,4.64
2022-12-03T16:17:42.078Z,4.61
2022-12-03T16:19:45.584Z,4.58
2022-12-03T16:21:48.842Z,4.66
2022-12-03T16:23:52.222Z,4.68
2022-12-03T16:25:55.519Z,4.65
2022-12-03T16:28:00.226Z,4.87
2022-12-03T16:30:04.161Z,4.82
2022-12-03T16:32:07.602Z,4.84
2022-12-03T16:34:11.263Z,4.82
2022-12-03T16:36:14.750Z,4.84
2022-12-03T16:38:18.129Z,4.67
2022-12-03T16:40:21.573Z,4.80
2022-12-03T16:42:25.068Z,4.79
2022-12-03T16:44:43.649Z,4.82
2022-12-03T16:46:47.161Z,4.85
2022-12-03T16:48:51.378Z,4.90
2022-12-03T16:50:54.692Z,4.79
2022-12-03T16:52:58.340Z,4.77
2022-12-03T16:55:01.764Z,4.86
2022-12-03T16:57:05.274Z,4.75
2022-12-03T16:59:08.576Z,4.75
2022-12-03T17:01:13.845Z,4.76
2022-12-03T17:03:18.302Z,4.77
2022-12-03T17:05:21.722Z,4.80
2022-12-03T17:07:25.103Z,4.77
2022-12-03T17:09:28.531Z,4.69
2022-12-03T17:11:32.018Z,4.74
2022-12-03T17:13:35.314Z,4.78
2022-12-03T17:15:38.946Z,4.73
2022-12-03T17:17:43.663Z,4.73
2022-12-03T17:19:46.982Z,4.71
2022-12-03T17:21:50.345Z,4.50
2022-12-03T17:23:53.646Z,4.54
2022-12-03T17:25:56.992Z,4.61
2022-12-03T17:28:00.389Z,4.66
2022-12-03T17:30:05.006Z,4.60
2022-12-03T17:32:08.339Z,4.62
2022-12-03T17:34:13.139Z,4.60
2022-12-03T17:36:16.492Z,4.69
2022-12-03T17:38:19.865Z,4.63
2022-12-03T17:40:23.159Z,4.58
2022-12-03T17:42:26.542Z,4.64
2022-12-03T17:44:29.878Z,4.54
2022-12-03T17:46:33.313Z,4.68
2022-12-03T17:48:36.847Z,4.67
2022-12-03T17:50:42.904Z,4.69
2022-12-03T17:52:46.293Z,4.68
2022-12-03T17:55:10.091Z,4.74
2022-12-03T17:57:13.253Z,4.79
2022-12-03T17:59:17.137Z,4.79
2022-12-03T18:01:20.533Z,4.88
2022-12-03T18:03:23.885Z,4.81
2022-12-03T18:05:27.279Z,4.74
2022-12-03T18:07:32.087Z,4.75
2022-12-03T18:09:35.654Z,4.75
2022-12-03T18:11:39.100Z,4.77
2022-12-03T18:13:42.372Z,4.75
2022-12-03T18:15:45.868Z,4.85
2022-12-03T18:17:49.253Z,4.78
2022-12-03T18:19:53.173Z,4.76
2022-12-03T18:21:56.738Z,4.76
2022-12-03T18:24:02.181Z,4.86
2022-12-03T18:26:06.132Z,4.79
2022-12-03T18:28:09.483Z,4.68
2022-12-03T18:30:13.659Z,4.61
2022-12-03T18:32:28.230Z,4.62
2022-12-03T18:34:31.933Z,4.63
2022-12-03T18:36:37.157Z,4.70
2022-12-03T18:38:40.551Z,4.72
2022-12-03T18:40:46.451Z,4.66
2022-12-03T18:42:49.899Z,4.77
2022-12-03T18:44:55.057Z,4.72
2022-12-03T18:46:59.030Z,4.69
2022-12-03T18:49:02.742Z,4.66
2022-12-03T18:51:10.385Z,4.66
2022-12-03T18:53:15.683Z,4.51
2022-12-03T18:55:20.560Z,4.71
2022-12-03T18:57:25.455Z,4.71
2022-12-03T18:59:28.995Z,4.72
2022-12-03T19:01:33.596Z,4.66
2022-12-03T19:03:36.988Z,4.59
2022-12-03T19:05:40.346Z,4.63
2022-12-03T19:07:44.230Z,4.39
2022-12-03T19:09:47.672Z,4.47
2022-12-03T19:11:51.095Z,4.48
2022-12-03T19:13:57.154Z,4.56
2022-12-03T19:16:02.935Z,4.59
2022-12-03T19:18:07.442Z,4.59
2022-12-03T19:20:12.757Z,4.53
2022-12-03T19:22:16.035Z,4.44
2022-12-03T19:24:26.519Z,4.42
2022-12-03T19:26:29.881Z,4.40
2022-12-03T19:28:33.809Z,4.44
2022-12-03T19:30:38.496Z,4.49
2022-12-03T19:32:41.787Z,4.50
2022-12-03T19:34:45.244Z,4.48
2022-12-03T19:36:48.719Z,4.51
2022-12-03T19:38:56.907Z,4.48
2022-12-03T19:41:02.840Z,4.43
2022-12-03T19:43:06.188Z,4.42
2022-12-03T19:45:10.921Z,4.46
2022-12-03T19:47:15.594Z,4.52
2022-12-03T19:49:20.964Z,4.51
2022-12-03T19:51:34.588Z,4.50
2022-12-03T19:53:39.757Z,4.46
2022-12-03T19:55:43.036Z,4.45
2022-12-03T19:57:46.439Z,4.48
2022-12-03T19:59:49.802Z,4.30
2022-12-03T20:01:53.364Z,4.22
2022-12-03T20:04:00.006Z,4.23
2022-12-03T20:06:03.367Z,4.31
2022-12-03T20:08:08.305Z,4.38
2022-12-03T20:10:11.900Z,4.45
2022-12-03T20:12:15.239Z,4.63
2022-12-03T20:14:18.768Z,4.59
2022-12-03T20:16:22.465Z,4.60
2022-12-03T20:18:25.964Z,4.44
2022-12-03T20:20:30.804Z,4.19
2022-12-03T20:22:34.209Z,4.23
2022-12-03T20:24:37.564Z,4.09
2022-12-03T20:26:40.946Z,4.14
2022-12-03T20:28:45.292Z,4.11
2022-12-03T20:30:58.379Z,4.09
2022-12-03T20:33:01.779Z,4.11
2022-12-03T20:35:06.039Z,4.13
2022-12-03T20:37:10.877Z,4.21
2022-12-03T20:39:14.161Z,4.11
2022-12-03T20:41:19.418Z,4.14
2022-12-03T20:43:23.017Z,4.11
2022-12-03T20:45:27.228Z,4.12
2022-12-03T20:47:30.759Z,4.21
2022-12-03T20:49:34.167Z,4.14
2022-12-03T20:51:37.690Z,4.15
2022-12-03T20:53:43.250Z,5.33
2022-12-03T20:55:46.607Z,4.97
2022-12-03T20:57:50.736Z,4.75
2022-12-03T20:59:55.734Z,4.54
2022-12-03T21:01:59.467Z,4.25
2022-12-03T21:04:04.627Z,4.32
2022-12-03T21:06:08.810Z,4.31
2022-12-03T21:08:12.772Z,4.32
2022-12-03T21:10:33.015Z,4.32
2022-12-03T21:12:38.602Z,4.42
2022-12-03T21:14:42.059Z,4.17
2022-12-03T21:19:12.580Z,4.50
2022-12-03T21:21:18.581Z,4.55
2022-12-03T21:23:22.094Z,4.54
2022-12-03T21:25:26.848Z,4.54
2022-12-03T21:27:32.026Z,4.63
2022-12-03T21:29:35.383Z,4.55
2022-12-03T21:31:41.474Z,4.56
2022-12-03T21:33:45.224Z,4.55
2022-12-03T21:35:48.663Z,4.64
2022-12-03T21:37:52.635Z,4.60
2022-12-03T21:39:56.127Z,4.60
2022-12-03T21:42:25.954Z,4.67
2022-12-03T21:44:24.449Z,4.74
2022-12-03T21:47:10.255Z,4.51
2022-12-03T21:48:51.813Z,4.63
2022-12-03T21:51:03.468Z,4.53
2022-12-03T21:53:07.021Z,4.41
2022-12-03T21:55:11.495Z,4.26
2022-12-03T21:57:16.119Z,4.28
2022-12-03T21:59:19.410Z,4.32
2022-12-03T22:01:24.893Z,4.42
2022-12-03T22:03:28.366Z,4.35
2022-12-03T22:05:31.772Z,4.33
2022-12-03T22:07:35.454Z,4.26
2022-12-03T22:09:38.891Z,4.20
2022-12-03T22:11:42.326Z,4.60
2022-12-03T22:13:47.520Z,4.69
2022-12-03T22:15:50.892Z,4.64
2022-12-03T22:17:54.208Z,4.44
2022-12-03T22:19:57.682Z,4.32
2022-12-03T22:22:01.010Z,4.19
2022-12-03T22:24:04.620Z,4.10
2022-12-03T22:26:09.762Z,4.11
2022-12-03T22:28:13.059Z,4.17
2022-12-03T22:30:17.980Z,4.21
2022-12-03T22:32:21.365Z,4.28
2022-12-03T22:34:24.709Z,4.39
2022-12-03T22:36:28.202Z,4.47
2022-12-03T22:38:33.142Z,4.53
2022-12-03T22:40:39.955Z,4.46
2022-12-03T22:42:49.354Z,4.49
2022-12-03T22:44:54.178Z,4.47
2022-12-03T22:46:58.910Z,4.52
2022-12-03T22:49:07.153Z,4.56
2022-12-03T22:51:14.058Z,4.54
2022-12-03T22:53:17.582Z,4.50
2022-12-03T22:55:20.907Z,4.62
2022-12-03T22:57:24.284Z,4.54
2022-12-03T22:59:27.721Z,4.61
2022-12-03T23:01:33.383Z,4.56
2022-12-03T23:03:38.632Z,4.61
2022-12-03T23:05:42.134Z,4.66
2022-12-03T23:07:45.619Z,4.40
2022-12-03T23:09:49.074Z,4.65
2022-12-03T23:11:52.359Z,4.65
2022-12-03T23:13:55.989Z,4.68
2022-12-03T23:15:59.392Z,4.62
2022-12-03T23:18:02.991Z,4.74
2022-12-03T23:20:09.404Z,4.65
2022-12-03T23:22:12.700Z,4.62
2022-12-03T23:24:16.059Z,4.63
2022-12-03T23:26:19.552Z,4.54
2022-12-03T23:28:22.859Z,4.51
2022-12-03T23:30:26.238Z,4.46
2022-12-03T23:32:29.613Z,4.44
2022-12-03T23:34:33.088Z,4.38
2022-12-03T23:36:37.853Z,4.46
2022-12-03T23:38:41.924Z,4.38
2022-12-03T23:40:48.246Z,4.31
2022-12-03T23:42:51.881Z,4.37
2022-12-03T23:44:55.166Z,4.51
2022-12-03T23:46:58.583Z,4.50
2022-12-03T23:49:03.281Z,4.49
2022-12-03T23:51:07.948Z,4.41
2022-12-03T23:53:12.635Z,4.43
2022-12-03T23:55:16.002Z,4.46
2022-12-03T23:57:19.305Z,4.48
2022-12-03T23:59:22.623Z,4.44
